Lehigh, Oklahoma
Current Conditions -  °F | °C
As of 12:55 PM on Thursday 25 Dec 2014 (Local Time) from KAQR Reporting Station
Clear Clear  
Wind Chill: 55°   Ceiling: Unl
Heat Index: 55°   Visibility: 10mi
Dew Point: 27°   Wind: 17mph
Humidity: 33%   Direction: 180°S
Pressure: 29.93"   Gusts: 28mph
Location:  34.47°N, 96.22°W
Report Text: KAQR 251855Z AUTO 18015G24KT 10SM CLR 13/M03 A2993 RMK AO2
Loading
Personal Weather Stations






























Interactive Weather Map New forecast layout! Learn more

10-Day Weather Forecast

Advertisements
Track Severe Weather on mobile